sensor_id;sensor_type;location;lat;lon;timestamp;pressure;altitude;pressure_sealevel;temperature;humidity
56176;BME280;63065;51.082;17.016;2023-04-09T00:00:37;101107.90;;;12.22;38.75
56176;BME280;63065;51.082;17.016;2023-04-09T00:03:02;101104.87;;;11.97;38.79
56176;BME280;63065;51.082;17.016;2023-04-09T00:05:27;101104.65;;;11.89;39.44
56176;BME280;63065;51.082;17.016;2023-04-09T00:07:53;101100.11;;;11.67;39.65
56176;BME280;63065;51.082;17.016;2023-04-09T00:10:19;101100.50;;;11.94;39.16
56176;BME280;63065;51.082;17.016;2023-04-09T00:12:45;101100.94;;;11.76;39.00
56176;BME280;63065;51.082;17.016;2023-04-09T00:15:10;101098.01;;;11.67;39.53
56176;BME280;63065;51.082;17.016;2023-04-09T00:17:36;101096.86;;;11.59;39.70
56176;BME280;63065;51.082;17.016;2023-04-09T00:20:01;101099.17;;;11.69;39.17
56176;BME280;63065;51.082;17.016;2023-04-09T00:22:27;101099.04;;;11.14;40.32
56176;BME280;63065;51.082;17.016;2023-04-09T00:24:52;101099.43;;;11.57;39.40
56176;BME280;63065;51.082;17.016;2023-04-09T00:27:18;101097.51;;;11.83;39.20
56176;BME280;63065;51.082;17.016;2023-04-09T00:29:43;101100.68;;;12.05;38.86
56176;BME280;63065;51.082;17.016;2023-04-09T00:32:08;101096.48;;;10.22;40.97
56176;BME280;63065;51.082;17.016;2023-04-09T00:34:33;101097.02;;;11.20;40.36
56176;BME280;63065;51.082;17.016;2023-04-09T00:36:58;101097.61;;;11.78;39.60
56176;BME280;63065;51.082;17.016;2023-04-09T00:39:24;101097.47;;;11.56;39.86
56176;BME280;63065;51.082;17.016;2023-04-09T00:41:49;101100.68;;;11.53;39.38
56176;BME280;63065;51.082;17.016;2023-04-09T00:44:14;101104.77;;;12.16;38.87
56176;BME280;63065;51.082;17.016;2023-04-09T00:46:40;101104.86;;;12.42;38.80
56176;BME280;63065;51.082;17.016;2023-04-09T00:49:06;101105.29;;;12.28;38.82
56176;BME280;63065;51.082;17.016;2023-04-09T00:51:31;101103.01;;;12.14;38.10
56176;BME280;63065;51.082;17.016;2023-04-09T00:53:57;101102.42;;;12.74;38.11
56176;BME280;63065;51.082;17.016;2023-04-09T00:56:22;101102.83;;;12.52;38.48
56176;BME280;63065;51.082;17.016;2023-04-09T00:58:48;101106.75;;;12.60;38.34
56176;BME280;63065;51.082;17.016;2023-04-09T01:01:13;101102.14;;;12.44;38.65
56176;BME280;63065;51.082;17.016;2023-04-09T01:03:39;101109.94;;;12.44;38.21
56176;BME280;63065;51.082;17.016;2023-04-09T01:06:09;101111.49;;;12.27;38.85
56176;BME280;63065;51.082;17.016;2023-04-09T01:08:37;101110.96;;;12.03;38.69
56176;BME280;63065;51.082;17.016;2023-04-09T01:11:02;101106.80;;;11.70;39.80
56176;BME280;63065;51.082;17.016;2023-04-09T01:13:29;101104.61;;;11.31;39.75
56176;BME280;63065;51.082;17.016;2023-04-09T01:15:51;101105.91;;;11.76;39.72
56176;BME280;63065;51.082;17.016;2023-04-09T01:18:17;101110.31;;;12.15;39.42
56176;BME280;63065;51.082;17.016;2023-04-09T01:20:40;101111.71;;;12.34;38.94
56176;BME280;63065;51.082;17.016;2023-04-09T01:23:13;101113.75;;;11.89;39.68
56176;BME280;63065;51.082;17.016;2023-04-09T01:25:39;101123.70;;;11.74;39.57
56176;BME280;63065;51.082;17.016;2023-04-09T01:30:19;101134.31;;;12.48;39.32
56176;BME280;63065;51.082;17.016;2023-04-09T01:32:44;101136.21;;;12.46;38.84
56176;BME280;63065;51.082;17.016;2023-04-09T01:35:09;101135.30;;;12.36;38.78
56176;BME280;63065;51.082;17.016;2023-04-09T01:37:35;101132.15;;;11.94;39.54
56176;BME280;63065;51.082;17.016;2023-04-09T01:40:00;101135.33;;;12.09;39.32
56176;BME280;63065;51.082;17.016;2023-04-09T01:42:26;101140.47;;;12.28;39.57
56176;BME280;63065;51.082;17.016;2023-04-09T01:44:51;101140.92;;;12.05;39.81
56176;BME280;63065;51.082;17.016;2023-04-09T01:47:16;101144.38;;;11.92;39.52
56176;BME280;63065;51.082;17.016;2023-04-09T01:49:42;101145.51;;;12.22;39.41
56176;BME280;63065;51.082;17.016;2023-04-09T01:52:08;101141.33;;;11.96;39.56
56176;BME280;63065;51.082;17.016;2023-04-09T01:54:33;101143.31;;;12.05;39.52
56176;BME280;63065;51.082;17.016;2023-04-09T01:56:58;101152.07;;;12.02;39.33
56176;BME280;63065;51.082;17.016;2023-04-09T01:59:24;101147.64;;;12.21;39.69
56176;BME280;63065;51.082;17.016;2023-04-09T02:01:53;101143.39;;;12.06;39.75
56176;BME280;63065;51.082;17.016;2023-04-09T02:04:20;101145.96;;;12.15;39.55
56176;BME280;63065;51.082;17.016;2023-04-09T02:06:47;101145.46;;;12.28;39.18
56176;BME280;63065;51.082;17.016;2023-04-09T02:09:08;101144.51;;;12.16;39.66
56176;BME280;63065;51.082;17.016;2023-04-09T02:11:33;101144.29;;;11.80;39.77
56176;BME280;63065;51.082;17.016;2023-04-09T02:13:57;101141.06;;;11.84;40.09
56176;BME280;63065;51.082;17.016;2023-04-09T02:16:22;101142.66;;;11.89;39.90
56176;BME280;63065;51.082;17.016;2023-04-09T02:18:52;101142.71;;;11.81;39.78
56176;BME280;63065;51.082;17.016;2023-04-09T02:21:13;101137.96;;;11.99;40.00
56176;BME280;63065;51.082;17.016;2023-04-09T02:23:38;101140.13;;;12.05;39.93
56176;BME280;63065;51.082;17.016;2023-04-09T02:26:04;101140.08;;;12.09;39.91
56176;BME280;63065;51.082;17.016;2023-04-09T02:28:29;101141.59;;;12.06;39.88
56176;BME280;63065;51.082;17.016;2023-04-09T02:30:55;101143.78;;;12.09;39.34
56176;BME280;63065;51.082;17.016;2023-04-09T02:33:20;101143.24;;;12.20;39.10
56176;BME280;63065;51.082;17.016;2023-04-09T02:35:45;101144.18;;;12.15;39.58
56176;BME280;63065;51.082;17.016;2023-04-09T02:38:11;101147.14;;;12.36;39.17
56176;BME280;63065;51.082;17.016;2023-04-09T02:40:37;101144.05;;;12.17;39.48
56176;BME280;63065;51.082;17.016;2023-04-09T02:43:02;101143.00;;;11.99;39.35
56176;BME280;63065;51.082;17.016;2023-04-09T02:45:28;101142.62;;;11.55;39.69
56176;BME280;63065;51.082;17.016;2023-04-09T02:47:54;101146.28;;;12.05;39.81
56176;BME280;63065;51.082;17.016;2023-04-09T02:50:19;101149.22;;;12.00;39.57
56176;BME280;63065;51.082;17.016;2023-04-09T02:52:45;101150.73;;;12.31;39.08
56176;BME280;63065;51.082;17.016;2023-04-09T02:55:10;101150.84;;;12.42;39.37
56176;BME280;63065;51.082;17.016;2023-04-09T02:57:36;101150.96;;;12.38;39.43
56176;BME280;63065;51.082;17.016;2023-04-09T03:00:01;101146.50;;;12.03;39.09
56176;BME280;63065;51.082;17.016;2023-04-09T03:02:26;101145.34;;;12.03;39.83
56176;BME280;63065;51.082;17.016;2023-04-09T03:04:52;101141.49;;;11.66;39.89
56176;BME280;63065;51.082;17.016;2023-04-09T03:07:17;101137.36;;;11.85;39.91
56176;BME280;63065;51.082;17.016;2023-04-09T03:09:43;101142.10;;;11.72;40.17
56176;BME280;63065;51.082;17.016;2023-04-09T03:12:08;101138.94;;;11.88;39.62
56176;BME280;63065;51.082;17.016;2023-04-09T03:14:34;101139.45;;;11.82;39.58
56176;BME280;63065;51.082;17.016;2023-04-09T03:16:59;101135.73;;;11.96;39.75
56176;BME280;63065;51.082;17.016;2023-04-09T03:19:24;101136.77;;;11.60;39.75
56176;BME280;63065;51.082;17.016;2023-04-09T03:21:50;101133.91;;;11.76;39.72
56176;BME280;63065;51.082;17.016;2023-04-09T03:24:15;101135.21;;;11.95;39.74
56176;BME280;63065;51.082;17.016;2023-04-09T03:26:41;101134.97;;;11.87;39.93
56176;BME280;63065;51.082;17.016;2023-04-09T03:29:07;101135.39;;;12.20;39.86
56176;BME280;63065;51.082;17.016;2023-04-09T03:31:32;101134.80;;;12.14;39.42
56176;BME280;63065;51.082;17.016;2023-04-09T03:33:58;101130.33;;;12.01;39.62
56176;BME280;63065;51.082;17.016;2023-04-09T03:36:23;101133.40;;;12.02;39.82
56176;BME280;63065;51.082;17.016;2023-04-09T03:38:49;101129.84;;;11.66;39.93
56176;BME280;63065;51.082;17.016;2023-04-09T03:41:14;101129.03;;;11.77;40.36
56176;BME280;63065;51.082;17.016;2023-04-09T03:43:39;101133.06;;;11.95;39.99
56176;BME280;63065;51.082;17.016;2023-04-09T03:46:11;101132.71;;;11.81;40.28
56176;BME280;63065;51.082;17.016;2023-04-09T03:48:30;101136.23;;;12.18;39.86
56176;BME280;63065;51.082;17.016;2023-04-09T03:50:55;101137.53;;;12.04;40.20
56176;BME280;63065;51.082;17.016;2023-04-09T03:53:21;101137.10;;;11.89;40.41
56176;BME280;63065;51.082;17.016;2023-04-09T03:55:47;101139.61;;;11.89;40.39
56176;BME280;63065;51.082;17.016;2023-04-09T03:58:12;101138.21;;;12.04;40.60
56176;BME280;63065;51.082;17.016;2023-04-09T04:00:37;101138.13;;;11.92;40.63
56176;BME280;63065;51.082;17.016;2023-04-09T04:03:02;101138.09;;;12.14;40.74
56176;BME280;63065;51.082;17.016;2023-04-09T04:05:28;101141.56;;;12.18;40.29
56176;BME280;63065;51.082;17.016;2023-04-09T04:07:54;101140.21;;;12.09;40.54
56176;BME280;63065;51.082;17.016;2023-04-09T04:10:19;101143.31;;;12.05;40.72
56176;BME280;63065;51.082;17.016;2023-04-09T04:12:44;101146.95;;;12.07;40.87
56176;BME280;63065;51.082;17.016;2023-04-09T04:15:11;101149.36;;;12.17;40.90
56176;BME280;63065;51.082;17.016;2023-04-09T04:17:35;101152.25;;;12.30;40.40
56176;BME280;63065;51.082;17.016;2023-04-09T04:20:00;101152.32;;;11.88;40.96
56176;BME280;63065;51.082;17.016;2023-04-09T04:22:26;101152.37;;;12.20;40.86
56176;BME280;63065;51.082;17.016;2023-04-09T04:24:51;101155.00;;;12.23;40.98
56176;BME280;63065;51.082;17.016;2023-04-09T04:27:17;101154.66;;;12.30;40.87
56176;BME280;63065;51.082;17.016;2023-04-09T04:29:42;101156.18;;;12.05;40.97
56176;BME280;63065;51.082;17.016;2023-04-09T04:32:07;101158.06;;;12.15;40.86
56176;BME280;63065;51.082;17.016;2023-04-09T04:34:32;101162.69;;;11.89;41.41
56176;BME280;63065;51.082;17.016;2023-04-09T04:36:58;101169.35;;;12.20;40.80
56176;BME280;63065;51.082;17.016;2023-04-09T04:39:23;101170.98;;;12.21;40.90
56176;BME280;63065;51.082;17.016;2023-04-09T04:41:49;101171.39;;;12.06;41.14
56176;BME280;63065;51.082;17.016;2023-04-09T04:44:15;101170.21;;;12.00;41.13
56176;BME280;63065;51.082;17.016;2023-04-09T04:46:40;101169.03;;;12.45;40.86
56176;BME280;63065;51.082;17.016;2023-04-09T04:49:06;101170.99;;;12.71;40.64
56176;BME280;63065;51.082;17.016;2023-04-09T04:51:31;101171.14;;;12.27;41.22
56176;BME280;63065;51.082;17.016;2023-04-09T04:53:57;101170.76;;;12.40;41.04
56176;BME280;63065;51.082;17.016;2023-04-09T04:56:23;101172.52;;;12.42;41.25
56176;BME280;63065;51.082;17.016;2023-04-09T04:58:48;101169.93;;;12.22;41.35
56176;BME280;63065;51.082;17.016;2023-04-09T05:01:14;101166.79;;;12.42;41.38
56176;BME280;63065;51.082;17.016;2023-04-09T05:03:39;101166.64;;;12.20;41.41
56176;BME280;63065;51.082;17.016;2023-04-09T05:06:04;101169.99;;;12.16;41.21
56176;BME280;63065;51.082;17.016;2023-04-09T05:08:30;101174.07;;;12.41;41.20
56176;BME280;63065;51.082;17.016;2023-04-09T05:10:55;101172.97;;;12.29;41.24
56176;BME280;63065;51.082;17.016;2023-04-09T05:13:21;101175.82;;;12.25;41.99
56176;BME280;63065;51.082;17.016;2023-04-09T05:15:47;101176.92;;;11.84;41.71
56176;BME280;63065;51.082;17.016;2023-04-09T05:18:11;101174.97;;;12.12;41.82
56176;BME280;63065;51.082;17.016;2023-04-09T05:20:37;101172.78;;;12.18;41.46
56176;BME280;63065;51.082;17.016;2023-04-09T05:23:02;101175.31;;;12.51;41.36
56176;BME280;63065;51.082;17.016;2023-04-09T05:25:28;101178.48;;;12.09;41.48
56176;BME280;63065;51.082;17.016;2023-04-09T05:27:53;101179.18;;;12.24;41.75
56176;BME280;63065;51.082;17.016;2023-04-09T05:30:18;101177.54;;;12.16;42.13
56176;BME280;63065;51.082;17.016;2023-04-09T05:32:44;101179.40;;;11.76;42.44
56176;BME280;63065;51.082;17.016;2023-04-09T05:35:09;101176.99;;;11.88;42.51
56176;BME280;63065;51.082;17.016;2023-04-09T05:37:35;101182.23;;;11.78;42.67
56176;BME280;63065;51.082;17.016;2023-04-09T05:40:01;101180.44;;;12.03;42.81
56176;BME280;63065;51.082;17.016;2023-04-09T05:42:26;101190.37;;;12.20;42.62
56176;BME280;63065;51.082;17.016;2023-04-09T05:44:52;101192.11;;;12.15;42.54
56176;BME280;63065;51.082;17.016;2023-04-09T05:47:17;101188.98;;;12.02;42.66
56176;BME280;63065;51.082;17.016;2023-04-09T05:49:43;101191.62;;;11.99;42.78
56176;BME280;63065;51.082;17.016;2023-04-09T05:52:08;101194.90;;;11.89;43.44
56176;BME280;63065;51.082;17.016;2023-04-09T05:54:34;101191.37;;;11.94;43.06
56176;BME280;63065;51.082;17.016;2023-04-09T05:56:59;101192.08;;;11.86;43.15
56176;BME280;63065;51.082;17.016;2023-04-09T05:59:25;101195.55;;;12.20;42.91
56176;BME280;63065;51.082;17.016;2023-04-09T06:01:50;101197.11;;;11.93;43.64
56176;BME280;63065;51.082;17.016;2023-04-09T06:04:15;101196.61;;;12.03;43.53
56176;BME280;63065;51.082;17.016;2023-04-09T06:06:40;101196.84;;;11.82;43.86
56176;BME280;63065;51.082;17.016;2023-04-09T06:09:06;101196.10;;;12.08;44.02
56176;BME280;63065;51.082;17.016;2023-04-09T06:11:32;101197.08;;;12.23;43.66
56176;BME280;63065;51.082;17.016;2023-04-09T06:13:57;101199.46;;;12.01;43.79
56176;BME280;63065;51.082;17.016;2023-04-09T06:16:23;101194.42;;;12.36;43.52
56176;BME280;63065;51.082;17.016;2023-04-09T06:18:48;101192.84;;;12.06;43.71
56176;BME280;63065;51.082;17.016;2023-04-09T06:21:13;101195.95;;;12.04;44.12
56176;BME280;63065;51.082;17.016;2023-04-09T06:23:39;101196.19;;;12.00;44.38
56176;BME280;63065;51.082;17.016;2023-04-09T06:26:04;101190.76;;;12.18;43.77
56176;BME280;63065;51.082;17.016;2023-04-09T06:28:29;101189.17;;;12.14;44.29
56176;BME280;63065;51.082;17.016;2023-04-09T06:30:54;101185.04;;;11.88;44.30
56176;BME280;63065;51.082;17.016;2023-04-09T06:33:20;101179.97;;;11.67;44.27
56176;BME280;63065;51.082;17.016;2023-04-09T06:35:45;101182.71;;;12.15;44.61
56176;BME280;63065;51.082;17.016;2023-04-09T06:38:10;101177.23;;;11.50;45.48
56176;BME280;63065;51.082;17.016;2023-04-09T06:40:36;101172.24;;;11.47;44.99
56176;BME280;63065;51.082;17.016;2023-04-09T06:43:01;101176.63;;;10.99;45.51
56176;BME280;63065;51.082;17.016;2023-04-09T06:45:27;101180.61;;;10.86;45.89
56176;BME280;63065;51.082;17.016;2023-04-09T06:47:52;101183.82;;;11.02;45.96
56176;BME280;63065;51.082;17.016;2023-04-09T06:50:18;101201.84;;;10.35;46.91
56176;BME280;63065;51.082;17.016;2023-04-09T06:52:43;101214.25;;;9.93;47.70
56176;BME280;63065;51.082;17.016;2023-04-09T06:55:09;101206.65;;;10.13;48.03
56176;BME280;63065;51.082;17.016;2023-04-09T06:57:34;101202.90;;;9.55;48.16
56176;BME280;63065;51.082;17.016;2023-04-09T06:59:59;101207.75;;;10.66;47.27
56176;BME280;63065;51.082;17.016;2023-04-09T07:02:25;101206.30;;;10.08;47.69
56176;BME280;63065;51.082;17.016;2023-04-09T07:04:50;101201.00;;;10.64;47.11
56176;BME280;63065;51.082;17.016;2023-04-09T07:07:16;101196.21;;;10.95;46.97
56176;BME280;63065;51.082;17.016;2023-04-09T07:09:42;101195.21;;;10.80;46.64
56176;BME280;63065;51.082;17.016;2023-04-09T07:12:07;101203.80;;;10.79;46.60
56176;BME280;63065;51.082;17.016;2023-04-09T07:14:33;101203.25;;;10.86;46.63
56176;BME280;63065;51.082;17.016;2023-04-09T07:16:58;101204.29;;;10.65;47.15
56176;BME280;63065;51.082;17.016;2023-04-09T07:19:23;101209.92;;;10.44;47.53
56176;BME280;63065;51.082;17.016;2023-04-09T07:21:49;101212.15;;;9.90;47.79
56176;BME280;63065;51.082;17.016;2023-04-09T07:24:14;101217.45;;;10.35;47.41
56176;BME280;63065;51.082;17.016;2023-04-09T07:26:40;101216.62;;;10.35;47.20
56176;BME280;63065;51.082;17.016;2023-04-09T07:29:06;101224.11;;;10.13;47.66
56176;BME280;63065;51.082;17.016;2023-04-09T07:31:31;101226.78;;;10.35;46.76
56176;BME280;63065;51.082;17.016;2023-04-09T07:33:56;101222.69;;;10.21;47.00
56176;BME280;63065;51.082;17.016;2023-04-09T07:36:21;101221.42;;;10.34;47.46
56176;BME280;63065;51.082;17.016;2023-04-09T07:38:46;101225.51;;;10.73;47.37
56176;BME280;63065;51.082;17.016;2023-04-09T07:41:12;101223.44;;;10.08;47.41
56176;BME280;63065;51.082;17.016;2023-04-09T07:43:37;101221.87;;;10.14;46.99
56176;BME280;63065;51.082;17.016;2023-04-09T07:46:02;101220.68;;;10.42;47.55
56176;BME280;63065;51.082;17.016;2023-04-09T07:48:27;101216.71;;;10.35;47.23
56176;BME280;63065;51.082;17.016;2023-04-09T07:50:53;101217.26;;;10.09;48.21
56176;BME280;63065;51.082;17.016;2023-04-09T07:53:18;101213.04;;;10.24;48.10
56176;BME280;63065;51.082;17.016;2023-04-09T07:55:44;101213.80;;;10.19;48.26
56176;BME280;63065;51.082;17.016;2023-04-09T07:58:10;101214.70;;;10.51;48.01
56176;BME280;63065;51.082;17.016;2023-04-09T08:00:35;101217.56;;;10.73;47.24
56176;BME280;63065;51.082;17.016;2023-04-09T08:03:01;101218.24;;;11.10;47.19
56176;BME280;63065;51.082;17.016;2023-04-09T08:05:26;101221.29;;;11.25;46.18
56176;BME280;63065;51.082;17.016;2023-04-09T08:07:52;101219.37;;;11.17;46.56
56176;BME280;63065;51.082;17.016;2023-04-09T08:10:18;101225.35;;;11.03;46.84
56176;BME280;63065;51.082;17.016;2023-04-09T08:12:43;101226.63;;;11.16;46.69
56176;BME280;63065;51.082;17.016;2023-04-09T08:15:09;101234.69;;;10.95;46.67
56176;BME280;63065;51.082;17.016;2023-04-09T08:17:34;101236.31;;;10.99;46.46
56176;BME280;63065;51.082;17.016;2023-04-09T08:20:00;101237.40;;;11.27;46.24
56176;BME280;63065;51.082;17.016;2023-04-09T08:22:25;101234.01;;;11.53;45.49
56176;BME280;63065;51.082;17.016;2023-04-09T08:24:51;101232.20;;;11.58;45.07
56176;BME280;63065;51.082;17.016;2023-04-09T08:27:16;101228.28;;;11.59;45.26
56176;BME280;63065;51.082;17.016;2023-04-09T08:29:42;101227.39;;;11.66;45.10
56176;BME280;63065;51.082;17.016;2023-04-09T08:32:07;101224.31;;;10.99;45.60
56176;BME280;63065;51.082;17.016;2023-04-09T08:34:33;101221.01;;;11.18;45.61
56176;BME280;63065;51.082;17.016;2023-04-09T08:36:58;101221.34;;;11.34;45.70
56176;BME280;63065;51.082;17.016;2023-04-09T08:39:24;101220.74;;;11.05;45.76
56176;BME280;63065;51.082;17.016;2023-04-09T08:41:51;101225.63;;;11.38;45.53
56176;BME280;63065;51.082;17.016;2023-04-09T08:44:15;101229.80;;;11.63;45.52
56176;BME280;63065;51.082;17.016;2023-04-09T08:46:41;101228.65;;;11.81;45.30
56176;BME280;63065;51.082;17.016;2023-04-09T08:49:08;101230.22;;;12.15;45.06
56176;BME280;63065;51.082;17.016;2023-04-09T08:51:32;101231.58;;;12.37;44.69
56176;BME280;63065;51.082;17.016;2023-04-09T08:53:59;101228.79;;;12.08;44.40
56176;BME280;63065;51.082;17.016;2023-04-09T08:56:22;101227.51;;;12.09;44.91
56176;BME280;63065;51.082;17.016;2023-04-09T08:58:47;101228.34;;;12.00;44.68
56176;BME280;63065;51.082;17.016;2023-04-09T09:01:18;101232.06;;;11.69;44.80
56176;BME280;63065;51.082;17.016;2023-04-09T09:03:52;101234.01;;;11.68;45.25
56176;BME280;63065;51.082;17.016;2023-04-09T09:06:10;101230.75;;;11.95;45.07
56176;BME280;63065;51.082;17.016;2023-04-09T09:08:30;101231.01;;;12.06;44.89
56176;BME280;63065;51.082;17.016;2023-04-09T09:10:55;101232.82;;;12.45;44.63
56176;BME280;63065;51.082;17.016;2023-04-09T09:13:23;101236.31;;;12.63;43.97
56176;BME280;63065;51.082;17.016;2023-04-09T09:15:46;101232.96;;;12.42;44.35
56176;BME280;63065;51.082;17.016;2023-04-09T09:18:12;101234.25;;;11.76;45.37
56176;BME280;63065;51.082;17.016;2023-04-09T09:20:37;101233.12;;;12.06;45.45
56176;BME280;63065;51.082;17.016;2023-04-09T09:23:02;101233.12;;;11.86;44.63
56176;BME280;63065;51.082;17.016;2023-04-09T09:25:28;101231.65;;;11.00;45.42
56176;BME280;63065;51.082;17.016;2023-04-09T09:27:53;101233.61;;;11.54;45.79
56176;BME280;63065;51.082;17.016;2023-04-09T09:30:21;101238.42;;;11.35;45.32
56176;BME280;63065;51.082;17.016;2023-04-09T09:32:44;101237.61;;;11.80;45.53
56176;BME280;63065;51.082;17.016;2023-04-09T09:35:09;101239.99;;;12.19;45.48
56176;BME280;63065;51.082;17.016;2023-04-09T09:37:35;101241.31;;;11.90;45.18
56176;BME280;63065;51.082;17.016;2023-04-09T09:40:01;101240.06;;;12.18;44.89
56176;BME280;63065;51.082;17.016;2023-04-09T09:42:27;101242.30;;;11.36;45.64
56176;BME280;63065;51.082;17.016;2023-04-09T09:44:53;101243.04;;;11.29;46.26
56176;BME280;63065;51.082;17.016;2023-04-09T09:47:18;101239.51;;;11.14;45.40
56176;BME280;63065;51.082;17.016;2023-04-09T09:49:43;101239.00;;;11.77;45.86
56176;BME280;63065;51.082;17.016;2023-04-09T09:52:09;101238.07;;;11.73;45.98
56176;BME280;63065;51.082;17.016;2023-04-09T09:54:39;101232.64;;;11.82;45.67
56176;BME280;63065;51.082;17.016;2023-04-09T09:57:03;101229.65;;;11.53;45.62
56176;BME280;63065;51.082;17.016;2023-04-09T09:59:29;101224.56;;;11.92;45.73
56176;BME280;63065;51.082;17.016;2023-04-09T10:01:55;101221.37;;;12.20;45.63
56176;BME280;63065;51.082;17.016;2023-04-09T10:04:19;101221.21;;;12.00;45.73
56176;BME280;63065;51.082;17.016;2023-04-09T10:06:43;101223.34;;;11.72;45.80
56176;BME280;63065;51.082;17.016;2023-04-09T10:09:07;101223.16;;;11.89;45.95
56176;BME280;63065;51.082;17.016;2023-04-09T10:11:35;101221.75;;;11.96;45.63
56176;BME280;63065;51.082;17.016;2023-04-09T10:13:58;101219.34;;;11.12;46.03
56176;BME280;63065;51.082;17.016;2023-04-09T10:16:24;101220.84;;;11.11;46.49
56176;BME280;63065;51.082;17.016;2023-04-09T10:18:49;101222.09;;;10.45;48.42
56176;BME280;63065;51.082;17.016;2023-04-09T10:21:23;101221.04;;;10.03;48.80
56176;BME280;63065;51.082;17.016;2023-04-09T10:23:41;101218.45;;;10.19;49.24
56176;BME280;63065;51.082;17.016;2023-04-09T10:26:05;101216.64;;;10.83;48.69
56176;BME280;63065;51.082;17.016;2023-04-09T10:28:30;101214.61;;;11.30;48.14
56176;BME280;63065;51.082;17.016;2023-04-09T10:30:57;101218.27;;;11.36;47.86
56176;BME280;63065;51.082;17.016;2023-04-09T10:33:23;101226.14;;;11.62;46.67
56176;BME280;63065;51.082;17.016;2023-04-09T10:35:47;101228.67;;;11.96;46.86
56176;BME280;63065;51.082;17.016;2023-04-09T10:38:13;101219.79;;;12.14;45.90
56176;BME280;63065;51.082;17.016;2023-04-09T10:40:41;101211.93;;;11.89;46.41
56176;BME280;63065;51.082;17.016;2023-04-09T10:43:04;101209.84;;;12.02;46.58
56176;BME280;63065;51.082;17.016;2023-04-09T10:47:54;101213.33;;;11.93;46.50
56176;BME280;63065;51.082;17.016;2023-04-09T10:50:20;101211.58;;;11.66;46.83
56176;BME280;63065;51.082;17.016;2023-04-09T10:52:45;101214.43;;;11.61;46.93
56176;BME280;63065;51.082;17.016;2023-04-09T10:57:35;101215.29;;;11.61;47.26
56176;BME280;63065;51.082;17.016;2023-04-09T11:00:01;101213.55;;;12.15;46.90
56176;BME280;63065;51.082;17.016;2023-04-09T11:04:59;101213.36;;;12.86;45.77
56176;BME280;63065;51.082;17.016;2023-04-09T11:07:18;101215.58;;;12.52;45.48
56176;BME280;63065;51.082;17.016;2023-04-09T11:09:43;101216.66;;;12.15;46.02
56176;BME280;63065;51.082;17.016;2023-04-09T11:12:10;101217.48;;;11.39;46.53
56176;BME280;63065;51.082;17.016;2023-04-09T11:14:33;101215.99;;;10.99;48.73
56176;BME280;63065;51.082;17.016;2023-04-09T11:16:58;101219.90;;;11.31;48.68
56176;BME280;63065;51.082;17.016;2023-04-09T11:19:25;101221.93;;;11.64;48.54
56176;BME280;63065;51.082;17.016;2023-04-09T11:21:50;101221.33;;;11.56;47.96
56176;BME280;63065;51.082;17.016;2023-04-09T11:24:17;101218.26;;;11.35;47.93
56176;BME280;63065;51.082;17.016;2023-04-09T11:26:41;101210.61;;;11.76;47.98
56176;BME280;63065;51.082;17.016;2023-04-09T11:29:06;101218.72;;;11.51;48.09
56176;BME280;63065;51.082;17.016;2023-04-09T11:31:31;101220.47;;;11.11;48.50
56176;BME280;63065;51.082;17.016;2023-04-09T11:33:56;101219.41;;;11.09;49.46
56176;BME280;63065;51.082;17.016;2023-04-09T11:36:22;101213.38;;;11.29;48.90
56176;BME280;63065;51.082;17.016;2023-04-09T11:38:48;101214.56;;;11.36;48.56
56176;BME280;63065;51.082;17.016;2023-04-09T11:41:13;101209.45;;;11.31;48.19
56176;BME280;63065;51.082;17.016;2023-04-09T11:43:38;101204.75;;;11.40;48.39
56176;BME280;63065;51.082;17.016;2023-04-09T11:46:04;101203.85;;;11.87;47.76
56176;BME280;63065;51.082;17.016;2023-04-09T11:48:29;101203.80;;;12.07;47.00
56176;BME280;63065;51.082;17.016;2023-04-09T11:50:54;101206.86;;;12.45;46.76
56176;BME280;63065;51.082;17.016;2023-04-09T11:53:21;101204.39;;;12.69;45.88
56176;BME280;63065;51.082;17.016;2023-04-09T11:55:48;101206.02;;;12.61;45.61
56176;BME280;63065;51.082;17.016;2023-04-09T11:58:12;101202.51;;;12.07;46.53
56176;BME280;63065;51.082;17.016;2023-04-09T12:00:39;101204.40;;;12.07;46.66
56176;BME280;63065;51.082;17.016;2023-04-09T12:03:04;101207.24;;;12.55;46.75
56176;BME280;63065;51.082;17.016;2023-04-09T12:05:29;101210.96;;;12.59;46.53
56176;BME280;63065;51.082;17.016;2023-04-09T12:07:57;101209.51;;;12.28;47.24
56176;BME280;63065;51.082;17.016;2023-04-09T12:10:19;101211.01;;;11.28;48.87
56176;BME280;63065;51.082;17.016;2023-04-09T12:12:46;101214.27;;;10.89;49.68
56176;BME280;63065;51.082;17.016;2023-04-09T12:15:16;101215.85;;;10.92;50.14
56176;BME280;63065;51.082;17.016;2023-04-09T12:17:35;101217.09;;;10.92;49.98
56176;BME280;63065;51.082;17.016;2023-04-09T12:20:00;101223.17;;;10.54;49.67
56176;BME280;63065;51.082;17.016;2023-04-09T12:22:26;101222.63;;;9.98;51.40
56176;BME280;63065;51.082;17.016;2023-04-09T12:24:51;101219.51;;;10.60;50.65
56176;BME280;63065;51.082;17.016;2023-04-09T12:27:16;101219.54;;;11.36;49.48
56176;BME280;63065;51.082;17.016;2023-04-09T12:29:42;101215.11;;;12.21;48.75
56176;BME280;63065;51.082;17.016;2023-04-09T12:32:08;101215.28;;;11.93;47.51
56176;BME280;63065;51.082;17.016;2023-04-09T12:34:33;101218.42;;;12.08;48.19
56176;BME280;63065;51.082;17.016;2023-04-09T12:36:59;101217.18;;;12.24;47.44
56176;BME280;63065;51.082;17.016;2023-04-09T12:39:24;101215.19;;;12.37;47.62